Time,TemperatureF,DewpointF,PressureIn,WindDirection,WindDirectionDegrees,WindSpeedMPH,WindSpeedGustMPH,Humidity,HourlyPrecipIn,Conditions,Clouds,dailyrainin,SoftwareType,DateUTC
2013-08-30 00:12:00,74.0,-99.9,-100.00,SW,227,7.0,14.0,-999,-99.99,,,-99.99,,2013-08-30 07:12:00,
2013-08-30 01:12:00,75.0,-99.9,-100.00,WSW,254,9.0,16.0,-999,-99.99,,,-99.99,,2013-08-30 08:12:00,
2013-08-30 02:12:00,72.0,-99.9,-100.00,SW,214,7.0,9.0,-999,-99.99,,,-99.99,,2013-08-30 09:12:00,
2013-08-30 03:13:00,72.0,-99.9,-100.00,SW,226,9.0,14.0,-999,-99.99,,,-99.99,,2013-08-30 10:13:00,
2013-08-30 04:12:00,69.0,-99.9,-100.00,WSW,239,8.0,12.0,-999,-99.99,,,-99.99,,2013-08-30 11:12:00,
2013-08-30 05:12:00,70.0,-99.9,-100.00,SW,231,10.0,14.0,-999,-99.99,,,-99.99,,2013-08-30 12:12:00,
2013-08-30 06:11:00,69.0,-99.9,-100.00,SW,223,7.0,12.0,-999,-99.99,,,-99.99,,2013-08-30 13:11:00,
2013-08-30 07:11:00,67.0,-99.9,-100.00,South,172,6.0,8.0,-999,-99.99,,,-99.99,,2013-08-30 14:11:00,
2013-08-30 08:11:00,67.0,-99.9,-100.00,SW,225,6.0,10.0,-999,-99.99,,,-99.99,,2013-08-30 15:11:00,
2013-08-30 09:14:00,70.0,-99.9,-100.00,SW,230,9.0,15.0,-999,-99.99,,,-99.99,,2013-08-30 16:14:00,
2013-08-30 10:13:00,74.0,-99.9,-100.00,SW,232,10.0,15.0,-999,-99.99,,,-99.99,,2013-08-30 17:13:00,
2013-08-30 11:12:00,78.0,-99.9,-100.00,SW,220,10.0,18.0,-999,-99.99,,,-99.99,,2013-08-30 18:12:00,
2013-08-30 12:12:00,80.0,-99.9,-100.00,WSW,245,10.0,16.0,-999,-99.99,,,-99.99,,2013-08-30 19:12:00,
2013-08-30 13:12:00,82.0,-99.9,-100.00,West,279,6.0,10.0,-999,-99.99,,,-99.99,,2013-08-30 20:12:00,
2013-08-30 14:12:00,85.0,-99.9,-100.00,East,87,3.0,7.0,-999,-99.99,,,-99.99,,2013-08-30 21:12:00,
2013-08-30 15:13:00,85.0,-99.9,-100.00,WSW,251,6.0,12.0,-999,-99.99,,,-99.99,,2013-08-30 22:13:00,
2013-08-30 16:12:00,87.0,-99.9,-100.00,WSW,245,5.0,10.0,-999,-99.99,,,-99.99,,2013-08-30 23:12:00,
2013-08-30 17:11:00,87.0,-99.9,-100.00,WNW,298,3.0,7.0,-999,-99.99,,,-99.99,,2013-08-31 00:11:00,
2013-08-30 18:11:00,88.0,-99.9,-100.00,SSW,204,5.0,10.0,-999,-99.99,,,-99.99,,2013-08-31 01:11:00,
2013-08-30 19:12:00,87.0,-99.9,-100.00,WSW,258,7.0,12.0,-999,-99.99,,,-99.99,,2013-08-31 02:12:00,
2013-08-30 20:12:00,85.0,-99.9,-100.00,WSW,254,9.0,12.0,-999,-99.99,,,-99.99,,2013-08-31 03:12:00,
2013-08-30 21:14:00,80.0,-99.9,-100.00,East,90,3.0,6.0,-999,-99.99,,,-99.99,,2013-08-31 04:14:00,
2013-08-30 22:13:00,74.0,-99.9,-100.00,North,5,5.0,6.0,-999,-99.99,,,-99.99,,2013-08-31 05:13:00,
2013-08-30 23:12:00,72.0,-99.9,-100.00,West,259,5.0,10.0,-999,-99.99,,,-99.99,,2013-08-31 06:12:00,